Time;durP1;ratioP1;P1;durP2;ratioP2;P2;SDS_P1;SDS_P2;PMS_P1;PMS_P2;Temp;Humidity;BMP_temperature;BMP_pressure;BME280_temperature;BME280_humidity;BME280_pressure;Samples;Min_cycle;Max_cycle;Signal;HPM_P1;HPM_P2
2023/01/25 00:02:03;;;;;;;75.07;30.27;;;;;;;0.44;92.18;103701.47;5030985;28;20033;-67
2023/01/25 00:04:29;;;;;;;80.82;31.58;;;;;;;0.42;91.75;103694.31;5029549;28;20046;-67
2023/01/25 00:06:54;;;;;;;85.38;33.22;;;;;;;0.40;91.28;103689.03;5024267;28;20040;-67
2023/01/25 00:09:22;;;;;;;84.93;32.97;;;;;;;0.38;91.52;103681.91;5026298;28;20140;-67
2023/01/25 00:11:48;;;;;;;85.28;32.47;;;;;;;0.40;91.06;103695.81;5019410;28;20740;-68
2023/01/25 00:14:14;;;;;;;80.07;32.53;;;;;;;0.39;91.54;103686.28;5029918;28;20033;-67
2023/01/25 00:16:41;;;;;;;77.82;30.30;;;;;;;0.38;92.44;103693.09;5026846;28;20029;-67
2023/01/25 00:19:07;;;;;;;88.10;33.35;;;;;;;0.39;92.05;103689.78;5027242;28;20018;-67
2023/01/25 00:21:33;;;;;;;84.85;32.63;;;;;;;0.42;92.74;103686.63;5027861;28;20104;-67
2023/01/25 00:23:59;;;;;;;82.65;32.83;;;;;;;0.46;92.40;103686.22;5023491;28;20568;-67
2023/01/25 00:26:24;;;;;;;84.53;33.58;;;;;;;0.45;91.96;103680.22;5027713;28;20033;-67
2023/01/25 00:28:51;;;;;;;82.65;32.20;;;;;;;0.44;91.45;103682.59;5029251;28;20033;-67
2023/01/25 00:31:35;;;;;;;86.97;34.20;;;;;;;0.38;91.10;103682.84;5029288;28;20116;-67
2023/01/25 00:34:25;;;;;;;88.28;33.50;;;;;;;0.31;91.06;103681.22;5030582;28;20033;-67
2023/01/25 00:36:56;;;;;;;93.60;33.92;;;;;;;0.29;91.84;103690.41;5029395;28;20033;-67
2023/01/25 00:39:22;;;;;;;90.82;34.60;;;;;;;0.28;91.78;103680.00;5027528;28;20486;-67
2023/01/25 00:41:47;;;;;;;96.00;36.60;;;;;;;0.23;91.65;103687.16;5029476;28;20029;-67
2023/01/25 00:44:13;;;;;;;93.22;34.47;;;;;;;0.17;91.48;103683.91;5028199;28;20380;-67
2023/01/25 00:46:38;;;;;;;96.13;35.42;;;;;;;0.14;91.00;103674.22;5021375;28;20499;-67
2023/01/25 00:49:03;;;;;;;90.97;34.63;;;;;;;0.14;91.92;103671.66;5027365;28;20025;-67
2023/01/25 00:51:28;;;;;;;95.88;36.22;;;;;;;0.18;92.17;103675.47;5031464;28;20028;-67
2023/01/25 00:53:54;;;;;;;86.70;33.13;;;;;;;0.21;92.57;103669.78;5030043;28;20045;-67
2023/01/25 00:56:19;;;;;;;99.07;35.63;;;;;;;0.22;91.73;103675.09;5023216;28;20104;-67
2023/01/25 00:58:44;;;;;;;94.40;35.67;;;;;;;0.22;92.25;103671.59;5024666;28;20053;-67
2023/01/25 01:01:10;;;;;;;100.68;37.00;;;;;;;0.24;91.90;103667.56;5030794;28;20116;-67
2023/01/25 01:03:36;;;;;;;95.10;35.83;;;;;;;0.25;92.02;103669.41;5030860;28;20026;-67
2023/01/25 01:06:03;;;;;;;102.47;35.53;;;;;;;0.25;92.48;103664.28;5029643;28;20400;-67
2023/01/25 01:08:28;;;;;;;94.35;35.60;;;;;;;0.26;93.02;103666.06;5027615;28;20386;-67
2023/01/25 01:11:01;;;;;;;97.68;34.72;;;;;;;0.30;92.99;103660.53;5025150;28;20029;-67
2023/01/25 01:13:29;;;;;;;92.80;34.33;;;;;;;0.34;93.20;103666.19;5027935;28;20498;-67
2023/01/25 01:15:55;;;;;;;97.38;36.25;;;;;;;0.41;92.36;103664.31;5028319;28;20070;-67
2023/01/25 01:18:21;;;;;;;95.55;34.42;;;;;;;0.44;91.73;103667.22;5028616;28;20183;-67
2023/01/25 01:20:48;;;;;;;93.18;34.85;;;;;;;0.42;92.16;103667.03;5028106;28;20219;-67
2023/01/25 01:23:14;;;;;;;98.30;36.75;;;;;;;0.42;91.69;103667.03;5021304;28;20033;-67
2023/01/25 01:25:39;;;;;;;95.88;35.70;;;;;;;0.42;91.52;103658.41;5024727;28;20079;-67
2023/01/25 01:28:04;;;;;;;98.78;35.85;;;;;;;0.42;92.40;103659.34;5019194;28;20492;-67
2023/01/25 01:30:29;;;;;;;101.10;37.08;;;;;;;0.44;91.50;103664.66;5025263;28;20025;-67
2023/01/25 01:32:55;;;;;;;100.57;37.22;;;;;;;0.42;91.77;103666.13;5029098;28;20496;-67
2023/01/25 01:35:20;;;;;;;99.20;36.63;;;;;;;0.42;91.33;103656.78;5028942;28;20128;-67
2023/01/25 01:37:45;;;;;;;96.80;35.80;;;;;;;0.44;92.11;103660.41;5027921;28;20079;-63
2023/01/25 01:40:14;;;;;;;94.45;35.63;;;;;;;0.44;91.48;103662.97;5028856;28;20407;-64
2023/01/25 01:42:59;;;;;;;98.82;37.55;;;;;;;0.49;91.15;103660.91;5027456;28;20069;-64
2023/01/25 01:45:46;;;;;;;101.10;35.85;;;;;;;0.53;91.10;103663.06;5022730;28;20029;-64
2023/01/25 01:48:23;;;;;;;104.03;38.15;;;;;;;0.54;92.22;103666.53;5024570;28;20092;-64
2023/01/25 01:50:53;;;;;;;105.65;37.03;;;;;;;0.50;91.80;103663.66;5028927;28;20030;-64
2023/01/25 01:53:23;;;;;;;101.88;37.10;;;;;;;0.48;91.53;103664.25;5024640;28;20036;-64
2023/01/25 01:55:49;;;;;;;102.53;36.63;;;;;;;0.46;91.94;103660.59;5027568;28;20083;-64
2023/01/25 01:58:15;;;;;;;95.75;35.15;;;;;;;0.47;91.78;103662.41;5026523;28;20017;-64
2023/01/25 02:00:40;;;;;;;101.60;37.40;;;;;;;0.47;91.89;103662.41;5028275;28;20040;-64
2023/01/25 02:03:08;;;;;;;101.15;34.88;;;;;;;0.47;91.63;103664.97;5026757;28;20108;-64
2023/01/25 02:05:57;;;;;;;97.95;35.70;;;;;;;0.48;91.23;103656.56;5027245;28;20042;-64
2023/01/25 02:08:23;;;;;;;88.50;34.10;;;;;;;0.46;91.53;103655.44;5025212;28;20030;-64
2023/01/25 02:10:49;;;;;;;102.88;36.90;;;;;;;0.45;91.42;103661.31;5029337;28;20147;-64
2023/01/25 02:13:17;;;;;;;109.78;38.08;;;;;;;0.41;91.40;103654.94;5027018;28;20366;-64
2023/01/25 02:15:47;;;;;;;114.72;38.03;;;;;;;0.40;91.75;103655.69;5028784;28;20064;-64
2023/01/25 02:18:12;;;;;;;105.00;38.20;;;;;;;0.38;91.02;103664.88;5026949;28;20033;-64
2023/01/25 02:20:41;;;;;;;106.55;38.78;;;;;;;0.37;92.42;103660.47;5025400;28;20395;-64
2023/01/25 02:23:34;;;;;;;98.68;35.95;;;;;;;0.39;92.50;103652.94;5027283;28;20030;-64
2023/01/25 02:26:04;;;;;;;99.68;35.88;;;;;;;0.40;92.26;103655.69;5019307;28;20029;-64
2023/01/25 02:28:37;;;;;;;98.47;35.20;;;;;;;0.40;91.67;103650.56;5024465;28;20037;-64
2023/01/25 02:31:02;;;;;;;107.05;38.78;;;;;;;0.30;90.46;103642.59;5026054;28;20662;-64
2023/01/25 02:33:28;;;;;;;107.40;38.42;;;;;;;0.22;90.86;103644.31;5028080;28;20392;-64
2023/01/25 02:36:08;;;;;;;111.88;39.03;;;;;;;0.14;90.52;103640.88;5025781;28;20036;-64
2023/01/25 02:39:00;;;;;;;105.53;37.30;;;;;;;0.09;91.94;103641.16;5026642;28;20519;-64
2023/01/25 02:41:38;;;;;;;108.95;37.67;;;;;;;0.08;91.68;103636.75;5024097;28;20522;-63
2023/01/25 02:44:11;;;;;;;104.50;36.22;;;;;;;0.06;91.69;103636.56;5027184;28;20071;-64
2023/01/25 02:46:38;;;;;;;110.15;38.63;;;;;;;0.08;90.58;103631.63;5027906;28;20128;-64
2023/01/25 02:49:06;;;;;;;112.97;39.20;;;;;;;0.03;91.29;103623.44;5031649;28;20068;-63
2023/01/25 02:51:34;;;;;;;115.97;38.60;;;;;;;-0.01;91.94;103621.25;5031732;28;20045;-63
2023/01/25 02:54:00;;;;;;;110.78;38.00;;;;;;;0.02;92.24;103621.59;5022406;28;20403;-64
2023/01/25 02:56:26;;;;;;;105.35;38.10;;;;;;;0.06;92.44;103628.88;5020002;28;20026;-64
2023/01/25 02:58:51;;;;;;;103.07;36.50;;;;;;;0.11;92.37;103621.69;5033236;28;20083;-64
2023/01/25 03:01:17;;;;;;;108.68;38.90;;;;;;;0.17;92.84;103628.44;5032971;28;20025;-64
2023/01/25 03:03:42;;;;;;;110.60;36.63;;;;;;;0.23;91.91;103628.16;5032431;28;20037;-64
2023/01/25 03:06:08;;;;;;;107.30;36.83;;;;;;;0.27;92.52;103622.63;5031893;28;20107;-64
2023/01/25 03:08:34;;;;;;;107.68;36.60;;;;;;;0.28;91.04;103623.56;5032853;28;20083;-64
2023/01/25 03:11:01;;;;;;;116.60;38.78;;;;;;;0.26;90.93;103625.03;5032924;28;20033;-64
2023/01/25 03:13:27;;;;;;;108.50;38.10;;;;;;;0.27;91.36;103620.06;5032238;28;20040;-64
2023/01/25 03:15:59;;;;;;;105.00;37.80;;;;;;;0.27;91.61;103612.38;5027429;28;20070;-63
2023/01/25 03:18:24;;;;;;;111.78;37.85;;;;;;;0.25;91.63;103612.97;5028239;28;20040;-64
2023/01/25 03:20:49;;;;;;;110.60;38.40;;;;;;;0.20;91.68;103614.13;5030488;28;20033;-64
2023/01/25 03:23:15;;;;;;;113.00;40.03;;;;;;;0.15;91.59;103611.94;5026319;28;20018;-64
2023/01/25 03:25:40;;;;;;;113.72;37.97;;;;;;;0.12;91.12;103611.63;5028565;28;20033;-64
2023/01/25 03:28:05;;;;;;;118.45;40.05;;;;;;;0.07;90.57;103611.84;5029300;28;20041;-64
2023/01/25 03:30:31;;;;;;;110.10;36.38;;;;;;;0.01;91.51;103606.94;5029974;28;20487;-64
2023/01/25 03:32:56;;;;;;;117.82;41.05;;;;;;;-0.02;91.43;103601.47;5030337;28;20116;-64
2023/01/25 03:35:21;;;;;;;120.22;39.88;;;;;;;-0.02;92.15;103593.78;5028977;28;20040;-63
2023/01/25 03:37:46;;;;;;;108.22;38.00;;;;;;;-0.02;91.11;103583.53;5028996;28;20053;-64
2023/01/25 03:40:12;;;;;;;115.07;39.05;;;;;;;0.00;91.62;103589.78;5027015;28;20033;-64
2023/01/25 03:42:37;;;;;;;114.50;37.72;;;;;;;0.02;91.45;103580.59;5030890;28;20017;-63
2023/01/25 03:45:04;;;;;;;115.45;37.85;;;;;;;0.06;92.35;103587.88;5031796;28;20080;-64
2023/01/25 03:47:29;;;;;;;114.97;38.97;;;;;;;0.09;91.62;103588.22;5030518;28;20053;-64
2023/01/25 03:49:54;;;;;;;112.28;37.97;;;;;;;0.14;91.66;103583.59;5027765;28;20135;-64
2023/01/25 03:52:20;;;;;;;109.55;37.10;;;;;;;0.17;91.63;103584.84;5030124;28;20025;-64
2023/01/25 03:54:45;;;;;;;109.72;37.45;;;;;;;0.25;91.77;103589.91;5030542;28;20040;-64
2023/01/25 03:57:11;;;;;;;110.45;37.67;;;;;;;0.27;91.72;103579.03;5030099;28;20079;-64
2023/01/25 03:59:37;;;;;;;110.63;37.75;;;;;;;0.27;91.66;103586.75;5030200;28;20523;-64
2023/01/25 04:02:02;;;;;;;124.57;38.92;;;;;;;0.29;90.67;103585.28;5030625;28;20155;-64
2023/01/25 04:04:27;;;;;;;111.65;38.90;;;;;;;0.29;91.08;103580.16;5029492;28;20030;-64
2023/01/25 04:06:52;;;;;;;110.38;37.85;;;;;;;0.28;91.54;103577.41;5029584;28;20108;-64
2023/01/25 04:09:18;;;;;;;117.75;37.67;;;;;;;0.29;90.55;103587.84;5029739;28;20568;-64
2023/01/25 04:11:43;;;;;;;115.03;37.70;;;;;;;0.28;91.38;103580.88;5030325;28;20041;-64
2023/01/25 04:14:09;;;;;;;117.93;39.22;;;;;;;0.22;91.24;103577.66;5027657;28;20033;-64
2023/01/25 04:16:34;;;;;;;120.47;39.20;;;;;;;0.23;91.02;103578.56;5026972;28;20114;-64
2023/01/25 04:19:00;;;;;;;117.32;38.63;;;;;;;0.23;91.53;103569.19;5028987;28;20032;-64
2023/01/25 04:21:25;;;;;;;112.18;38.53;;;;;;;0.25;91.72;103572.84;5030171;28;20278;-64
2023/01/25 04:23:50;;;;;;;110.57;37.78;;;;;;;0.23;91.13;103569.19;5030715;28;20055;-64
2023/01/25 04:26:16;;;;;;;116.60;40.25;;;;;;;0.16;90.75;103567.63;5028827;28;20483;-64
2023/01/25 04:28:41;;;;;;;107.45;38.50;;;;;;;0.12;91.24;103567.13;5029167;28;20079;-64
2023/01/25 04:31:06;;;;;;;116.28;40.42;;;;;;;0.09;91.29;103567.69;5027184;28;20021;-64
2023/01/25 04:33:32;;;;;;;112.28;38.08;;;;;;;0.01;91.79;103571.06;5028280;28;20830;-64
2023/01/25 04:35:58;;;;;;;118.32;38.92;;;;;;;-0.05;92.04;103566.16;5029654;28;20464;-64
2023/01/25 04:38:23;;;;;;;117.65;38.00;;;;;;;-0.08;91.36;103565.81;5028091;28;20087;-64
2023/01/25 04:40:50;;;;;;;117.63;40.63;;;;;;;-0.07;91.99;103570.22;5026750;28;20026;-64
2023/01/25 04:43:17;;;;;;;110.55;38.05;;;;;;;-0.04;92.27;103564.53;5028164;28;20059;-64
2023/01/25 04:45:43;;;;;;;111.97;38.42;;;;;;;0.01;92.15;103565.94;5026014;28;20503;-63
2023/01/25 04:48:10;;;;;;;115.88;39.75;;;;;;;0.03;92.33;103559.34;5025658;28;20036;-64
2023/01/25 04:50:37;;;;;;;115.55;39.78;;;;;;;0.02;91.14;103562.63;5024433;28;20127;-64
2023/01/25 04:53:03;;;;;;;112.15;38.33;;;;;;;-0.08;91.04;103554.69;5028361;28;20033;-64
2023/01/25 04:55:28;;;;;;;113.88;38.85;;;;;;;-0.13;92.04;103555.81;5030155;28;20025;-63
2023/01/25 04:57:54;;;;;;;113.20;38.20;;;;;;;-0.18;92.40;103553.63;5028053;28;20083;-64
2023/01/25 05:00:19;;;;;;;108.47;36.30;;;;;;;-0.20;92.18;103547.44;5025697;28;20480;-64
2023/01/25 05:02:45;;;;;;;109.15;37.05;;;;;;;-0.20;91.73;103552.56;5023951;28;20029;-64
2023/01/25 05:05:11;;;;;;;109.90;36.40;;;;;;;-0.20;92.50;103544.00;5028397;28;20121;-64
2023/01/25 05:07:37;;;;;;;112.70;36.50;;;;;;;-0.19;92.29;103544.16;5025468;28;20415;-64
2023/01/25 05:10:03;;;;;;;113.00;37.55;;;;;;;-0.19;92.33;103541.59;5028907;28;20029;-63
2023/01/25 05:12:28;;;;;;;113.80;37.92;;;;;;;-0.20;91.88;103538.88;5027324;28;20029;-64
2023/01/25 05:14:54;;;;;;;105.20;35.45;;;;;;;-0.24;91.88;103542.72;5030226;28;20083;-63
2023/01/25 05:17:19;;;;;;;104.68;35.53;;;;;;;-0.28;91.13;103540.56;5028280;28;20029;-64
2023/01/25 05:19:44;;;;;;;111.57;36.85;;;;;;;-0.32;90.94;103530.69;5029488;28;20035;-64
2023/01/25 05:22:13;;;;;;;117.97;38.10;;;;;;;-0.37;91.05;103534.41;5027297;28;20037;-63
2023/01/25 05:24:41;;;;;;;116.10;37.17;;;;;;;-0.40;91.61;103539.22;5027522;28;20037;-64
2023/01/25 05:27:08;;;;;;;104.35;36.13;;;;;;;-0.40;91.62;103534.97;5028338;28;20396;-64
2023/01/25 05:29:39;;;;;;;109.95;37.53;;;;;;;-0.38;91.41;103532.59;5023384;28;20037;-63
2023/01/25 05:32:07;;;;;;;114.72;38.95;;;;;;;-0.39;92.69;103535.88;5028381;28;20107;-63
2023/01/25 05:34:33;;;;;;;108.05;35.75;;;;;;;-0.42;92.45;103525.28;5029136;28;20083;-64
2023/01/25 05:36:59;;;;;;;104.32;35.85;;;;;;;-0.46;92.25;103529.19;5029556;28;20061;-67
2023/01/25 05:39:24;;;;;;;109.75;35.13;;;;;;;-0.47;93.14;103531.56;5027316;28;20125;-67
2023/01/25 05:41:50;;;;;;;106.00;34.95;;;;;;;-0.49;92.38;103523.72;5028824;28;20483;-67
2023/01/25 05:44:15;;;;;;;108.28;36.58;;;;;;;-0.49;92.45;103527.91;5027216;28;20064;-67
2023/01/25 05:46:41;;;;;;;101.47;35.85;;;;;;;-0.48;93.09;103530.66;5026274;28;20017;-67
2023/01/25 05:49:07;;;;;;;113.55;35.80;;;;;;;-0.46;92.85;103528.28;5025042;28;20201;-67
2023/01/25 05:51:32;;;;;;;101.75;35.72;;;;;;;-0.47;91.89;103531.56;5024310;28;20026;-67
2023/01/25 05:53:58;;;;;;;101.65;34.58;;;;;;;-0.50;91.93;103528.69;5028710;28;20484;-66
2023/01/25 05:56:23;;;;;;;102.82;35.30;;;;;;;-0.54;92.07;103524.84;5028441;28;20029;-67
2023/01/25 05:58:59;;;;;;;105.55;35.22;;;;;;;-0.59;92.57;103524.34;5027190;28;20044;-67
2023/01/25 06:01:25;;;;;;;98.88;34.22;;;;;;;-0.60;92.63;103525.06;5022110;28;20095;-67
2023/01/25 06:03:51;;;;;;;106.57;35.00;;;;;;;-0.61;92.34;103523.25;5021320;28;20064;-67
2023/01/25 06:06:17;;;;;;;107.00;34.38;;;;;;;-0.66;92.59;103524.38;5023896;28;20034;-67
2023/01/25 06:08:42;;;;;;;109.00;34.50;;;;;;;-0.69;92.67;103523.16;5023122;28;20100;-67
2023/01/25 06:11:10;;;;;;;108.57;35.03;;;;;;;-0.74;92.70;103520.97;5027418;28;20041;-67
2023/01/25 06:13:36;;;;;;;106.30;34.25;;;;;;;-0.73;93.01;103529.56;5023912;28;20033;-67
2023/01/25 06:16:01;;;;;;;108.80;35.45;;;;;;;-0.73;92.36;103534.69;5024126;28;20517;-67
2023/01/25 06:18:29;;;;;;;107.95;35.00;;;;;;;-0.70;92.62;103527.34;5023423;28;20048;-67
2023/01/25 06:20:59;;;;;;;101.35;33.83;;;;;;;-0.65;93.32;103526.22;5021371;28;20040;-67
2023/01/25 06:23:24;;;;;;;99.47;33.90;;;;;;;-0.59;92.73;103523.44;5027733;28;20041;-67
2023/01/25 06:25:52;;;;;;;95.18;32.83;;;;;;;-0.54;93.14;103524.84;5033882;28;20372;-67
2023/01/25 06:28:17;;;;;;;98.53;33.08;;;;;;;-0.50;92.89;103523.56;5028720;28;20022;-67
2023/01/25 06:30:43;;;;;;;96.57;33.15;;;;;;;-0.51;92.72;103520.06;5027592;28;20041;-67
2023/01/25 06:33:08;;;;;;;98.63;33.45;;;;;;;-0.47;93.16;103522.22;5026734;28;20029;-67
2023/01/25 06:35:33;;;;;;;100.70;32.83;;;;;;;-0.41;92.29;103522.00;5024356;28;20041;-67
2023/01/25 06:37:59;;;;;;;101.82;34.13;;;;;;;-0.36;92.53;103526.00;5030842;28;20122;-67
2023/01/25 06:40:25;;;;;;;101.97;34.35;;;;;;;-0.33;91.53;103523.78;5032307;28;20060;-67
2023/01/25 06:42:51;;;;;;;96.55;33.22;;;;;;;-0.29;91.66;103523.38;5032796;28;20041;-67
2023/01/25 06:45:16;;;;;;;97.15;33.55;;;;;;;-0.32;91.17;103520.44;5028348;28;20078;-67
2023/01/25 06:47:42;;;;;;;94.22;32.60;;;;;;;-0.39;91.26;103518.88;5027632;28;20022;-67
2023/01/25 06:50:08;;;;;;;98.20;32.42;;;;;;;-0.42;91.46;103520.16;5031217;28;20052;-67
2023/01/25 06:52:35;;;;;;;93.72;32.65;;;;;;;-0.46;92.45;103513.81;5020640;28;20038;-67
2023/01/25 06:55:02;;;;;;;94.97;32.25;;;;;;;-0.45;92.12;103512.16;5028878;28;20022;-67
2023/01/25 06:57:28;;;;;;;92.93;32.42;;;;;;;-0.41;92.51;103516.88;5025983;28;20117;-67
2023/01/25 06:59:53;;;;;;;98.05;33.75;;;;;;;-0.38;92.64;103517.22;5028884;28;20040;-67
2023/01/25 07:02:19;;;;;;;86.18;30.63;;;;;;;-0.31;92.76;103517.16;5030840;28;20433;-67
2023/01/25 10:45:20;;;;;;;95.20;31.05;;;;;;;-0.31;92.47;103396.75;5865012;23;20053;-96
2023/01/25 10:48:02;;;;;;;102.50;32.58;;;;;;;-0.35;93.04;103389.47;4990505;28;20347;-96
2023/01/25 10:50:45;;;;;;;96.85;30.33;;;;;;;-0.36;92.43;103383.44;4992268;28;20044;-96
2023/01/25 10:53:34;;;;;;;100.25;33.78;;;;;;;-0.32;92.65;103379.56;4995959;28;20087;-96
2023/01/25 10:56:21;;;;;;;102.63;32.80;;;;;;;-0.34;92.39;103370.81;4992572;28;20030;-95
2023/01/25 10:58:49;;;;;;;102.00;33.00;;;;;;;-0.36;92.90;103370.66;4992055;28;20124;-96
2023/01/25 11:01:30;;;;;;;103.88;33.95;;;;;;;-0.35;92.58;103374.09;4991890;28;20113;-94
2023/01/25 11:03:56;;;;;;;98.53;32.17;;;;;;;-0.36;92.35;103362.06;4988825;28;20390;-96
2023/01/25 11:06:34;;;;;;;111.15;33.22;;;;;;;-0.33;93.02;103359.81;4992049;28;20038;-95
2023/01/25 11:09:03;;;;;;;101.85;33.70;;;;;;;-0.30;92.86;103349.91;4995419;28;20029;-96
2023/01/25 11:11:31;;;;;;;;;;;;;;;-0.25;93.73;103350.41;4995189;28;20045;-94
2023/01/25 11:13:56;;;;;;;96.43;30.23;;;;;;;-0.35;91.72;103335.69;4994865;28;20000;-95
2023/01/25 11:16:34;;;;;;;95.05;31.17;;;;;;;-0.48;92.05;103335.09;4998391;28;20139;-92
2023/01/25 11:19:01;;;;;;;91.80;31.65;;;;;;;-0.51;93.07;103329.66;4992782;28;20037;-94
2023/01/25 11:21:32;;;;;;;107.70;34.45;;;;;;;-0.53;93.31;103329.47;4994900;28;20159;-94
2023/01/25 11:24:05;;;;;;;104.03;33.20;;;;;;;-0.56;93.16;103322.38;4995845;28;20037;-94
2023/01/25 11:26:32;;;;;;;96.47;31.13;;;;;;;-0.54;93.14;103325.09;4995116;28;20100;-93
2023/01/25 11:29:21;;;;;;;102.35;32.88;;;;;;;-0.57;92.98;103317.09;5016277;28;20060;-95
2023/01/25 11:31:50;;;;;;;102.05;31.13;;;;;;;-0.62;93.13;103313.09;4995073;28;20498;-94
2023/01/25 11:34:18;;;;;;;105.43;33.22;;;;;;;-0.63;93.31;103303.63;4997664;28;20053;-93
2023/01/25 11:37:02;;;;;;;100.63;33.60;;;;;;;-0.63;92.40;103288.25;4996113;28;20093;-94
2023/01/25 11:39:27;;;;;;;102.93;33.08;;;;;;;-0.66;91.47;103287.94;4993615;28;20034;-95
2023/01/25 11:42:04;;;;;;;94.72;31.63;;;;;;;-0.73;92.24;103279.56;4993836;28;20028;-95
2023/01/25 11:45:02;;;;;;;98.32;31.27;;;;;;;-0.75;93.51;103273.38;4994286;28;20037;-93
2023/01/25 11:47:41;;;;;;;102.97;32.93;;;;;;;-0.74;93.36;103262.41;4975252;28;20050;-94
2023/01/25 11:50:19;;;;;;;96.00;32.17;;;;;;;-0.74;93.38;103259.84;4974984;28;20038;-94
2023/01/25 11:53:02;;;;;;;98.68;33.90;;;;;;;-0.67;93.50;103263.97;4976298;28;20081;-95
2023/01/25 11:55:53;;;;;;;100.15;33.08;;;;;;;-0.63;93.63;103268.69;4975640;28;20026;-94
2023/01/25 11:58:25;;;;;;;102.72;34.05;;;;;;;-0.57;93.83;103259.09;4975052;28;20065;-94
2023/01/25 12:01:09;;;;;;;100.35;31.30;;;;;;;-0.55;92.93;103243.88;4981018;28;20042;-94
2023/01/25 12:03:50;;;;;;;93.38;30.88;;;;;;;-0.56;92.26;103230.19;4980420;28;20020;-94
2023/01/25 12:06:41;;;;;;;91.95;31.13;;;;;;;-0.59;92.72;103218.72;4971650;28;20085;-94
2023/01/25 12:09:28;;;;;;;101.85;31.13;;;;;;;-0.60;92.49;103215.22;4972583;28;20037;-94
2023/01/25 12:12:09;;;;;;;100.57;32.33;;;;;;;-0.59;92.59;103206.81;4978603;28;20152;-94
2023/01/25 12:15:11;;;;;;;93.30;30.50;;;;;;;-0.61;93.27;103203.19;4976160;28;20030;-94
2023/01/25 12:17:51;;;;;;;90.53;29.02;;;;;;;-0.64;92.96;103202.84;4973687;28;20117;-94
2023/01/25 12:20:33;;;;;;;87.78;29.40;;;;;;;-0.66;92.54;103188.97;4983874;28;20022;-93
2023/01/25 12:23:08;;;;;;;91.93;29.85;;;;;;;-0.66;93.12;103177.84;4974218;28;20045;-94
2023/01/25 12:26:00;;;;;;;97.65;31.75;;;;;;;-0.66;92.91;103176.19;4975547;28;20033;-94
2023/01/25 12:28:40;;;;;;;84.57;29.13;;;;;;;-0.64;92.46;103174.69;4973754;28;20206;-94
2023/01/25 12:31:17;;;;;;;90.95;30.92;;;;;;;-0.62;92.18;103168.09;4976154;28;20504;-94
2023/01/25 12:33:58;;;;;;;96.72;32.05;;;;;;;-0.62;92.58;103162.97;4972619;28;20342;-94
2023/01/25 12:36:39;;;;;;;94.38;30.92;;;;;;;-0.61;92.88;103158.75;4972420;28;20038;-93
2023/01/25 12:39:12;;;;;;;93.88;29.55;;;;;;;-0.61;92.07;103146.88;4975216;28;20057;-93
2023/01/25 12:41:49;;;;;;;95.50;30.73;;;;;;;-0.61;92.18;103135.69;4972947;28;20567;-94
2023/01/25 12:44:35;;;;;;;95.78;31.80;;;;;;;-0.57;91.93;103132.72;4981864;28;20034;-94
2023/01/25 12:47:19;;;;;;;91.50;29.80;;;;;;;-0.57;91.70;103131.06;4972551;28;20062;-93
2023/01/25 12:49:50;;;;;;;96.07;30.33;;;;;;;-0.59;91.84;103132.56;4975061;28;20506;-94
2023/01/25 12:52:32;;;;;;;97.70;30.83;;;;;;;-0.58;92.50;103129.28;4975359;28;20030;-94
2023/01/25 12:55:04;;;;;;;92.30;30.42;;;;;;;-0.62;90.90;103116.88;4976845;28;20034;-94
2023/01/25 12:57:45;;;;;;;86.45;29.85;;;;;;;-0.75;91.09;103109.56;4971950;28;20030;-94
2023/01/25 13:00:31;;;;;;;91.43;30.88;;;;;;;-0.83;92.60;103106.94;4973505;28;20026;-94
2023/01/25 13:03:26;;;;;;;90.57;29.70;;;;;;;-0.82;92.96;103101.06;4974272;28;20052;-94
2023/01/25 13:06:15;;;;;;;90.25;30.08;;;;;;;-0.82;92.46;103094.28;4973934;28;20041;-93
2023/01/25 13:08:52;;;;;;;94.18;30.05;;;;;;;-0.85;92.29;103103.28;4975642;28;20022;-94
2023/01/25 13:11:22;;;;;;;89.57;29.27;;;;;;;-0.83;92.30;103096.69;4977277;28;20088;-93
2023/01/25 13:13:48;;;;;;;92.22;30.02;;;;;;;-0.86;92.11;103092.16;4972757;28;20089;-93
2023/01/25 13:16:28;;;;;;;94.50;30.80;;;;;;;-0.88;92.35;103092.00;4975142;28;20026;-93
2023/01/25 13:18:54;;;;;;;82.97;27.73;;;;;;;-0.88;93.28;103084.31;4975334;28;20026;-96
2023/01/25 13:21:35;;;;;;;91.90;30.65;;;;;;;-0.91;92.82;103081.44;4973930;28;20057;-95
2023/01/25 13:24:13;;;;;;;90.22;29.67;;;;;;;-0.99;92.73;103077.13;4975843;28;20289;-96
2023/01/25 13:26:54;;;;;;;90.22;30.40;;;;;;;-1.05;92.91;103072.28;4978948;28;20026;-95
2023/01/25 13:29:34;;;;;;;87.82;30.00;;;;;;;-1.05;92.93;103068.81;4977063;28;20034;-95
2023/01/25 13:32:01;;;;;;;89.47;29.58;;;;;;;-1.02;93.08;103070.81;4977917;28;20034;-95
2023/01/25 13:34:37;;;;;;;92.35;28.73;;;;;;;-1.00;92.62;103069.31;4972350;28;20030;-95
2023/01/25 13:37:23;;;;;;;87.32;29.45;;;;;;;-0.97;92.78;103060.31;4977536;28;20030;-96
2023/01/25 13:39:52;;;;;;;90.65;28.77;;;;;;;-0.99;92.66;103051.56;4974832;28;20022;-96
2023/01/25 13:42:25;;;;;;;93.47;28.17;;;;;;;-0.98;93.49;103048.25;4973143;28;20516;-95
2023/01/25 13:44:55;;;;;;;87.97;30.75;;;;;;;-1.01;92.84;103045.38;4972671;28;20107;-96
2023/01/25 13:47:30;;;;;;;92.75;29.95;;;;;;;-0.98;93.25;103038.03;4973307;28;20058;-96
2023/01/25 13:50:02;;;;;;;88.95;29.33;;;;;;;-0.97;93.77;103049.16;4995220;28;20161;-96
2023/01/25 13:52:31;;;;;;;86.00;29.88;;;;;;;-0.96;93.40;103044.19;4975481;28;20026;-96
2023/01/25 13:54:58;;;;;;;92.65;29.35;;;;;;;-0.93;93.92;103041.06;4972428;28;20038;-95
2023/01/25 13:57:27;;;;;;;92.95;30.17;;;;;;;-0.92;93.36;103037.75;4971410;28;20054;-96
2023/01/25 14:00:10;;;;;;;99.80;30.45;;;;;;;-0.98;92.88;103032.91;4980446;28;20045;-95
2023/01/25 14:02:37;;;;;;;93.90;29.40;;;;;;;-0.97;93.02;103021.00;4979841;28;20041;-95
2023/01/25 14:05:04;;;;;;;95.07;30.48;;;;;;;-0.92;93.27;103028.44;4971924;28;20045;-96
2023/01/25 14:07:35;;;;;;;84.00;27.70;;;;;;;-0.90;93.24;103023.47;4980844;28;20054;-96
2023/01/25 14:10:09;;;;;;;89.28;29.52;;;;;;;-0.94;91.91;103019.69;4979200;28;20030;-96
2023/01/25 14:12:41;;;;;;;93.75;30.27;;;;;;;-0.98;92.21;103030.34;4987753;28;20140;-94
2023/01/25 14:15:30;;;;;;;91.43;29.15;;;;;;;-0.98;92.97;103032.91;4988637;28;20046;-94
2023/01/25 14:18:13;;;;;;;89.43;29.95;;;;;;;-0.92;93.34;103038.66;4980424;28;20014;-94
2023/01/25 14:20:42;;;;;;;93.30;29.63;;;;;;;-0.86;93.39;103037.50;4981027;28;20449;-94
2023/01/25 14:23:28;;;;;;;86.93;29.45;;;;;;;-0.86;93.02;103037.50;4979402;28;20031;-94
2023/01/25 14:25:58;;;;;;;128.07;43.35;;;;;;;-0.86;92.36;103037.50;4980168;28;20507;-94
2023/01/25 14:28:24;;;;;;;348.15;109.32;;;;;;;-0.90;92.80;103042.31;4978859;28;20502;-95
2023/01/25 14:30:52;;;;;;;119.03;39.13;;;;;;;-0.88;93.20;103035.69;4983279;28;20035;-94
2023/01/25 14:33:20;;;;;;;93.47;31.13;;;;;;;-0.81;92.49;103033.75;4980617;28;20019;-94
2023/01/25 14:38:34;;;;;;;93.30;30.10;;;;;;;-0.74;92.21;103025.97;5050579;22;20057;-94
2023/01/25 14:41:30;;;;;;;91.17;29.63;;;;;;;-0.72;92.75;103021.94;5010503;28;20038;-94
2023/01/25 14:44:00;;;;;;;90.03;27.95;;;;;;;-0.70;92.55;103015.31;5010132;28;20033;-94
2023/01/25 14:46:31;;;;;;;89.55;30.02;;;;;;;-0.68;92.98;103007.78;5002712;28;20018;-95
2023/01/25 14:49:12;;;;;;;85.38;30.48;;;;;;;-0.72;92.46;103009.16;4997638;28;20092;-94
2023/01/25 14:51:42;;;;;;;90.05;29.70;;;;;;;-0.78;92.01;103006.84;4997851;28;20034;-95
2023/01/25 14:54:26;;;;;;;86.35;29.23;;;;;;;-0.80;92.17;103004.88;4995695;28;20038;-96
2023/01/25 14:56:59;;;;;;;94.32;30.98;;;;;;;-0.85;91.85;103006.03;4995065;28;20036;-95
2023/01/25 14:59:35;;;;;;;98.47;30.55;;;;;;;-0.82;92.40;103003.81;4991053;28;20030;-94
2023/01/25 15:02:15;;;;;;;89.18;28.83;;;;;;;-0.81;92.83;102992.81;4997155;28;20018;-95
2023/01/25 15:05:01;;;;;;;92.28;30.52;;;;;;;-0.77;92.08;102993.31;4994785;28;20033;-94
2023/01/25 15:07:47;;;;;;;97.93;29.65;;;;;;;-0.80;93.09;102989.50;4995779;28;20030;-94
2023/01/25 15:10:18;;;;;;;95.68;29.20;;;;;;;-0.81;93.34;102996.31;4997572;28;20029;-96